createdAt,value
2022-12-12T00:00:35.082Z,41.87
2022-12-12T00:01:35.095Z,45.17
2022-12-12T00:02:35.160Z,54.18
2022-12-12T00:03:35.171Z,45.68
2022-12-12T00:04:35.059Z,44.78
2022-12-12T00:05:35.048Z,42.94
2022-12-12T00:06:35.090Z,45.64
2022-12-12T00:07:35.072Z,42.42
2022-12-12T00:08:35.027Z,42.23
2022-12-12T00:09:35.022Z,45.16
2022-12-12T00:10:35.012Z,59.84
2022-12-12T00:11:35.004Z,58.72
2022-12-12T00:12:35.029Z,59.39
2022-12-12T00:13:34.995Z,61.39
2022-12-12T00:14:34.993Z,64.71
2022-12-12T00:15:35.017Z,60.45
2022-12-12T00:16:34.977Z,59.96
2022-12-12T00:17:34.995Z,59.89
2022-12-12T00:18:34.959Z,60.03
2022-12-12T00:19:34.955Z,59.19
2022-12-12T00:20:34.958Z,59.23
2022-12-12T00:21:34.924Z,59.30
2022-12-12T00:22:35.970Z,59.74
2022-12-12T00:23:34.925Z,59.37
2022-12-12T00:24:34.924Z,59.54
2022-12-12T00:25:34.922Z,59.52
2022-12-12T00:26:34.942Z,59.60
2022-12-12T00:27:34.924Z,59.55
2022-12-12T00:28:34.896Z,59.97
2022-12-12T00:29:34.880Z,59.67
2022-12-12T00:30:34.880Z,59.70
2022-12-12T00:31:34.940Z,60.07
2022-12-12T00:32:34.893Z,60.17
2022-12-12T00:33:34.856Z,59.97
2022-12-12T00:34:34.850Z,60.17
2022-12-12T00:35:34.843Z,60.38
2022-12-12T00:36:34.836Z,60.37
2022-12-12T00:37:34.865Z,60.03
2022-12-12T00:38:34.821Z,60.03
2022-12-12T00:39:34.810Z,60.05
2022-12-12T00:40:34.808Z,60.23
2022-12-12T00:41:34.798Z,60.68
2022-12-12T00:42:34.817Z,60.17
2022-12-12T00:43:34.783Z,60.18
2022-12-12T00:44:34.773Z,60.38
2022-12-12T00:45:34.766Z,62.11
2022-12-12T00:46:34.810Z,60.26
2022-12-12T00:47:34.784Z,60.25
2022-12-12T00:48:34.785Z,60.51
2022-12-12T00:50:07.592Z,60.65
2022-12-12T00:50:34.730Z,60.42
2022-12-12T00:51:34.721Z,60.24
2022-12-12T00:52:34.748Z,62.65
2022-12-12T00:53:34.712Z,60.52
2022-12-12T00:54:34.705Z,60.45
2022-12-12T00:55:34.699Z,60.41
2022-12-12T00:56:34.690Z,60.51
2022-12-12T00:57:34.707Z,60.86
2022-12-12T00:58:34.674Z,60.47
2022-12-12T00:59:34.672Z,60.48
2022-12-12T01:00:34.665Z,60.25
2022-12-12T01:01:34.699Z,60.02
2022-12-12T01:02:34.775Z,59.89
2022-12-12T01:03:34.640Z,59.13
2022-12-12T01:04:34.631Z,58.96
2022-12-12T01:05:34.626Z,59.12
2022-12-12T01:06:34.625Z,59.90
2022-12-12T01:07:34.648Z,41.41
2022-12-12T01:08:34.605Z,44.22
2022-12-12T01:09:34.607Z,45.93
2022-12-12T01:10:34.596Z,41.64
2022-12-12T01:11:34.591Z,41.84
2022-12-12T01:12:34.634Z,41.87
2022-12-12T01:13:34.572Z,42.00
2022-12-12T01:14:34.567Z,44.70
2022-12-12T01:15:34.559Z,47.36
2022-12-12T01:16:34.611Z,48.82
2022-12-12T01:17:34.573Z,50.30
2022-12-12T01:18:34.536Z,41.84
2022-12-12T01:19:34.527Z,41.95
2022-12-12T01:20:34.519Z,41.91
2022-12-12T01:21:34.514Z,47.15
2022-12-12T01:22:34.537Z,42.36
2022-12-12T01:23:34.499Z,46.83
2022-12-12T01:24:34.484Z,45.99
2022-12-12T01:25:35.497Z,45.13
2022-12-12T01:26:34.478Z,45.35
2022-12-12T01:27:34.499Z,41.94
2022-12-12T01:28:34.468Z,43.78
2022-12-12T01:29:34.477Z,43.80
2022-12-12T01:30:34.462Z,46.20
2022-12-12T01:31:34.581Z,47.36
2022-12-12T01:32:34.492Z,46.03
2022-12-12T01:33:34.432Z,41.65
2022-12-12T01:34:34.432Z,44.38
2022-12-12T01:35:34.463Z,44.02
2022-12-12T01:36:34.405Z,55.40
2022-12-12T01:37:34.443Z,41.80
2022-12-12T01:38:34.396Z,49.25
2022-12-12T01:39:34.385Z,42.11
2022-12-12T01:40:34.381Z,41.64
2022-12-12T01:41:34.375Z,46.13
2022-12-12T01:42:34.384Z,49.61
2022-12-12T01:43:34.352Z,42.08
2022-12-12T01:44:34.346Z,41.64
2022-12-12T01:45:34.343Z,48.99
2022-12-12T01:46:34.390Z,42.29
2022-12-12T01:47:34.356Z,41.39
2022-12-12T01:48:34.332Z,41.56
2022-12-12T01:49:34.313Z,44.43
2022-12-12T01:50:34.315Z,41.82
2022-12-12T01:51:34.298Z,45.72
2022-12-12T01:52:34.313Z,55.30
2022-12-12T01:53:34.298Z,48.30
2022-12-12T01:54:34.276Z,47.29
2022-12-12T01:55:34.268Z,42.55
2022-12-12T01:56:34.269Z,42.17
2022-12-12T01:57:34.316Z,52.00
2022-12-12T01:58:34.249Z,44.20
2022-12-12T01:59:34.247Z,42.81
2022-12-12T02:00:34.277Z,57.74
2022-12-12T02:01:34.225Z,47.49
2022-12-12T02:02:34.244Z,49.54
2022-12-12T02:03:34.213Z,47.95
2022-12-12T02:04:34.207Z,44.48
2022-12-12T02:05:34.200Z,44.49
2022-12-12T02:06:34.191Z,48.07
2022-12-12T02:07:34.189Z,48.50
2022-12-12T02:08:34.204Z,57.45
2022-12-12T02:09:34.177Z,43.41
2022-12-12T02:10:34.166Z,45.66
2022-12-12T02:11:34.154Z,44.01
2022-12-12T02:12:34.148Z,44.47
2022-12-12T02:13:34.171Z,47.74
2022-12-12T02:14:34.133Z,46.30
2022-12-12T02:15:34.134Z,48.94
2022-12-12T02:16:34.146Z,49.77
2022-12-12T02:17:34.101Z,44.64
2022-12-12T02:18:35.136Z,47.91
2022-12-12T02:19:34.096Z,51.35
2022-12-12T02:20:34.089Z,55.08
2022-12-12T02:21:34.085Z,45.97
2022-12-12T02:22:34.077Z,53.89
2022-12-12T02:23:34.103Z,47.25
2022-12-12T02:24:34.062Z,44.60
2022-12-12T02:25:34.057Z,50.89
2022-12-12T02:26:34.051Z,54.92
2022-12-12T02:27:34.032Z,54.31
2022-12-12T02:28:34.055Z,44.51
2022-12-12T02:29:34.030Z,44.20
2022-12-12T02:30:34.017Z,47.33
2022-12-12T02:31:34.034Z,45.51
2022-12-12T02:32:34.052Z,45.72
2022-12-12T02:33:34.022Z,50.85
2022-12-12T02:34:33.996Z,45.22
2022-12-12T02:35:33.986Z,42.99
2022-12-12T02:36:33.978Z,43.77
2022-12-12T02:37:33.971Z,45.40
2022-12-12T02:38:33.998Z,42.48
2022-12-12T02:39:33.958Z,45.42
2022-12-12T02:40:33.946Z,47.03
2022-12-12T02:41:33.947Z,51.82
2022-12-12T02:42:33.990Z,49.32
2022-12-12T02:43:33.958Z,46.70
2022-12-12T02:44:33.920Z,47.88
2022-12-12T02:45:33.912Z,48.80
2022-12-12T02:46:33.940Z,52.09
2022-12-12T02:47:33.902Z,60.36
2022-12-12T02:48:33.923Z,46.37
2022-12-12T02:49:33.880Z,51.99
2022-12-12T02:50:33.878Z,52.45
2022-12-12T02:51:33.909Z,45.17
2022-12-12T02:52:33.860Z,49.14
2022-12-12T02:53:33.894Z,52.52
2022-12-12T02:54:33.855Z,58.14
2022-12-12T02:55:36.555Z,47.94
2022-12-12T02:56:34.833Z,45.40
2022-12-12T02:57:33.834Z,42.22
2022-12-12T02:58:33.854Z,48.62
2022-12-12T02:59:33.808Z,48.57
2022-12-12T03:00:33.843Z,52.57
2022-12-12T03:01:33.844Z,50.77
2022-12-12T03:02:33.791Z,47.46
2022-12-12T03:03:33.781Z,49.58
2022-12-12T03:04:33.800Z,43.53
2022-12-12T03:05:33.774Z,49.74
2022-12-12T03:06:39.223Z,47.69
2022-12-12T03:07:35.754Z,49.45
2022-12-12T03:08:33.764Z,53.55
2022-12-12T03:09:33.774Z,51.30
2022-12-12T03:10:33.730Z,48.45
2022-12-12T03:11:33.725Z,42.58
2022-12-12T03:12:33.727Z,43.36
2022-12-12T03:13:33.714Z,51.63
2022-12-12T03:14:33.729Z,46.89
2022-12-12T03:15:33.696Z,45.16
2022-12-12T03:16:33.707Z,43.79
2022-12-12T03:17:33.686Z,45.70
2022-12-12T03:18:33.681Z,50.82
2022-12-12T03:19:33.692Z,49.52
2022-12-12T03:20:33.660Z,52.43
2022-12-12T03:21:33.654Z,49.86
2022-12-12T03:22:33.648Z,52.02
2022-12-12T03:23:33.646Z,49.79
2022-12-12T03:24:33.665Z,46.87
2022-12-12T03:25:33.627Z,50.62
2022-12-12T03:26:33.619Z,44.92
2022-12-12T03:27:33.611Z,48.24
2022-12-12T03:28:33.602Z,52.43
2022-12-12T03:29:33.623Z,50.06
2022-12-12T03:30:33.586Z,50.76
2022-12-12T03:31:33.612Z,48.03
2022-12-12T03:32:33.574Z,49.01
2022-12-12T03:33:33.573Z,50.08
2022-12-12T03:34:33.594Z,46.49
2022-12-12T03:35:33.554Z,51.70
2022-12-12T03:36:33.559Z,54.59
2022-12-12T03:37:33.541Z,52.87
2022-12-12T03:38:33.543Z,53.69
2022-12-12T03:39:33.555Z,50.13
2022-12-12T03:40:33.516Z,47.61
2022-12-12T03:41:33.512Z,47.58
2022-12-12T03:42:33.498Z,50.96
2022-12-12T03:43:33.496Z,49.95
2022-12-12T03:44:38.176Z,51.03
2022-12-12T03:45:35.621Z,45.92
2022-12-12T03:46:33.470Z,53.33
2022-12-12T03:47:33.469Z,52.20
2022-12-12T03:48:33.468Z,55.84
2022-12-12T03:49:33.452Z,50.81
2022-12-12T03:50:33.477Z,50.26
2022-12-12T03:51:33.439Z,43.64
2022-12-12T03:52:33.438Z,59.35
2022-12-12T03:53:33.428Z,55.63
2022-12-12T03:54:33.425Z,56.68
2022-12-12T03:55:33.436Z,60.86
2022-12-12T03:56:33.407Z,55.51
2022-12-12T03:57:33.404Z,52.10
2022-12-12T03:58:33.390Z,49.83
2022-12-12T03:59:33.388Z,47.57
2022-12-12T04:00:33.398Z,52.06
2022-12-12T04:01:33.397Z,50.66
2022-12-12T04:02:33.406Z,54.90
2022-12-12T04:03:34.350Z,62.33
2022-12-12T04:04:33.347Z,53.09
2022-12-12T04:05:33.363Z,54.53
2022-12-12T04:06:33.339Z,53.01
2022-12-12T04:07:33.324Z,51.27
2022-12-12T04:08:33.318Z,53.01
2022-12-12T04:09:33.304Z,52.23
2022-12-12T04:10:34.330Z,53.97
2022-12-12T04:11:33.296Z,55.07
2022-12-12T04:12:33.283Z,55.26
2022-12-12T04:13:33.287Z,56.68
2022-12-12T04:14:33.269Z,54.50
2022-12-12T04:15:33.285Z,59.16
2022-12-12T04:16:33.296Z,49.72
2022-12-12T04:17:33.253Z,52.77
2022-12-12T04:18:33.248Z,55.33
2022-12-12T04:19:33.236Z,52.94
2022-12-12T04:20:33.250Z,57.12
2022-12-12T04:21:33.239Z,52.78
2022-12-12T04:22:33.217Z,55.30
2022-12-12T04:23:33.203Z,56.36
2022-12-12T04:24:33.202Z,53.90
2022-12-12T04:25:33.218Z,54.71
2022-12-12T04:26:33.206Z,57.17
2022-12-12T04:27:33.180Z,57.30
2022-12-12T04:28:33.166Z,55.73
2022-12-12T04:29:33.164Z,55.75
2022-12-12T04:30:33.196Z,57.02
2022-12-12T04:31:33.171Z,56.42
2022-12-12T04:32:33.173Z,54.52
2022-12-12T04:33:33.138Z,56.31
2022-12-12T04:34:33.134Z,57.52
2022-12-12T04:35:33.124Z,60.45
2022-12-12T04:36:33.119Z,54.99
2022-12-12T04:37:33.144Z,52.45
2022-12-12T04:38:33.102Z,55.10
2022-12-12T04:39:33.094Z,52.25
2022-12-12T04:40:33.078Z,53.54
2022-12-12T04:41:33.072Z,51.96
2022-12-12T04:42:33.122Z,56.80
2022-12-12T04:43:33.070Z,55.91
2022-12-12T04:44:33.055Z,53.75
2022-12-12T04:45:33.095Z,55.40
2022-12-12T04:46:33.048Z,56.29
2022-12-12T04:47:33.057Z,53.55
2022-12-12T04:48:37.141Z,56.70
2022-12-12T04:49:35.010Z,56.36
2022-12-12T04:50:33.015Z,54.61
2022-12-12T04:51:33.008Z,55.86
2022-12-12T04:52:33.018Z,61.29
2022-12-12T04:53:32.991Z,61.07
2022-12-12T04:54:32.979Z,60.41
2022-12-12T04:55:32.972Z,63.00
2022-12-12T04:56:32.963Z,60.89
2022-12-12T04:57:32.984Z,61.36
2022-12-12T04:58:32.967Z,61.21
2022-12-12T04:59:32.946Z,61.08
2022-12-12T05:00:32.938Z,61.11
2022-12-12T05:01:33.014Z,61.56
2022-12-12T05:02:32.973Z,61.25
2022-12-12T05:03:32.914Z,61.30
2022-12-12T05:04:32.902Z,61.20
2022-12-12T05:05:32.905Z,61.19
2022-12-12T05:06:32.907Z,62.10
2022-12-12T05:07:37.899Z,61.70
2022-12-12T05:08:34.880Z,60.87
2022-12-12T05:09:32.870Z,61.68
2022-12-12T05:10:32.863Z,62.99
2022-12-12T05:11:32.855Z,64.70
2022-12-12T05:12:32.873Z,61.52
2022-12-12T05:13:32.847Z,62.25
2022-12-12T05:14:32.830Z,61.76
2022-12-12T05:15:32.821Z,61.00
2022-12-12T05:16:32.967Z,61.67
2022-12-12T05:17:32.815Z,61.88
2022-12-12T05:18:32.833Z,61.25
2022-12-12T05:19:32.829Z,64.11
2022-12-12T05:20:32.796Z,61.84
2022-12-12T05:21:32.782Z,61.63
2022-12-12T05:22:32.781Z,61.13
2022-12-12T05:23:34.769Z,61.98
2022-12-12T05:24:33.768Z,61.89
2022-12-12T05:25:32.757Z,61.20
2022-12-12T05:26:32.754Z,61.68
2022-12-12T05:27:32.745Z,61.44
2022-12-12T05:28:32.770Z,62.24
2022-12-12T05:29:32.729Z,61.16
2022-12-12T05:30:32.760Z,61.90
2022-12-12T05:31:32.771Z,61.11
2022-12-12T05:32:32.707Z,61.62
2022-12-12T05:33:32.738Z,61.11
2022-12-12T05:34:32.698Z,63.32
2022-12-12T05:35:32.691Z,61.06
2022-12-12T05:36:32.682Z,61.65
2022-12-12T05:37:32.673Z,62.01
2022-12-12T05:38:32.691Z,61.91
2022-12-12T05:39:32.667Z,64.93
2022-12-12T05:40:32.657Z,63.33
2022-12-12T05:41:32.641Z,61.21
2022-12-12T05:42:32.636Z,60.81
2022-12-12T05:43:32.661Z,61.57
2022-12-12T05:44:32.632Z,61.49
2022-12-12T05:45:32.617Z,61.44
2022-12-12T05:46:32.707Z,62.23
2022-12-12T05:47:32.607Z,61.55
2022-12-12T05:48:32.623Z,62.52
2022-12-12T05:49:32.591Z,61.23
2022-12-12T05:50:32.580Z,62.28
2022-12-12T05:51:32.573Z,61.29
2022-12-12T05:52:32.563Z,61.63
2022-12-12T05:53:36.391Z,61.03
2022-12-12T05:54:33.553Z,60.88
2022-12-12T05:55:32.544Z,59.80
2022-12-12T05:56:32.545Z,57.02
2022-12-12T05:57:32.526Z,58.14
2022-12-12T05:58:32.550Z,57.16
2022-12-12T05:59:32.513Z,58.61
2022-12-12T06:00:32.506Z,52.98
2022-12-12T06:01:32.526Z,58.68
2022-12-12T06:02:32.605Z,55.45
2022-12-12T06:03:32.489Z,57.51
2022-12-12T06:04:32.534Z,57.13
2022-12-12T06:05:32.469Z,57.60
2022-12-12T06:06:32.466Z,56.27
2022-12-12T06:07:32.458Z,52.10
2022-12-12T06:08:32.506Z,58.78
2022-12-12T06:09:32.464Z,56.80
2022-12-12T06:10:32.445Z,57.16
2022-12-12T06:11:32.421Z,54.90
2022-12-12T06:12:32.416Z,56.10
2022-12-12T06:13:32.415Z,54.98
2022-12-12T06:14:32.430Z,59.08
2022-12-12T06:15:32.427Z,58.12
2022-12-12T06:16:32.387Z,55.49
2022-12-12T06:17:33.473Z,59.14
2022-12-12T06:18:33.380Z,57.93
2022-12-12T06:19:32.398Z,58.85
2022-12-12T06:20:32.358Z,57.88
2022-12-12T06:21:32.355Z,57.28
2022-12-12T06:22:32.344Z,52.34
2022-12-12T06:23:32.351Z,54.82
2022-12-12T06:24:32.359Z,54.82
2022-12-12T06:25:32.321Z,50.15
2022-12-12T06:26:32.320Z,55.75
2022-12-12T06:27:32.310Z,59.65
2022-12-12T06:28:32.300Z,57.44
2022-12-12T06:29:32.315Z,58.14
2022-12-12T06:30:32.291Z,56.27
2022-12-12T06:31:32.335Z,56.62
2022-12-12T06:32:32.272Z,57.80
2022-12-12T06:33:32.269Z,58.26
2022-12-12T06:34:32.314Z,56.24
2022-12-12T06:35:32.257Z,58.98
2022-12-12T06:36:32.261Z,59.02
2022-12-12T06:37:32.239Z,57.69
2022-12-12T06:38:32.227Z,58.10
2022-12-12T06:39:32.264Z,55.67
2022-12-12T06:40:32.251Z,59.42
2022-12-12T06:41:32.209Z,55.45
2022-12-12T06:42:32.201Z,53.44
2022-12-12T06:43:32.204Z,54.68
2022-12-12T06:44:32.213Z,54.23
2022-12-12T06:45:32.175Z,59.90
2022-12-12T06:46:32.253Z,58.61
2022-12-12T06:47:32.165Z,57.32
2022-12-12T06:48:32.153Z,55.50
2022-12-12T06:49:32.193Z,57.61
2022-12-12T06:51:05.153Z,55.84
2022-12-12T06:51:32.138Z,56.26
2022-12-12T06:52:32.128Z,55.78
2022-12-12T06:53:32.145Z,56.73
2022-12-12T06:54:32.144Z,54.39
2022-12-12T06:55:32.098Z,57.73
2022-12-12T06:56:32.103Z,58.90
2022-12-12T06:57:32.093Z,55.41
2022-12-12T06:58:32.081Z,56.45
2022-12-12T06:59:32.082Z,56.01
2022-12-12T07:00:32.113Z,52.28
2022-12-12T07:01:32.096Z,57.89
2022-12-12T07:02:32.090Z,55.38
2022-12-12T07:03:32.047Z,54.12
2022-12-12T07:04:32.655Z,55.93
2022-12-12T07:05:32.054Z,58.00
2022-12-12T07:06:32.027Z,57.68
2022-12-12T07:07:32.014Z,56.11
2022-12-12T07:08:32.010Z,54.34
2022-12-12T07:09:32.004Z,57.32
2022-12-12T07:10:32.022Z,54.09
2022-12-12T07:11:31.994Z,55.61
2022-12-12T07:12:31.987Z,57.04
2022-12-12T07:13:31.979Z,56.11
2022-12-12T07:14:31.965Z,53.18
2022-12-12T07:15:32.035Z,57.16
2022-12-12T07:16:31.955Z,55.76
2022-12-12T07:17:31.948Z,52.94
2022-12-12T07:18:31.955Z,54.56
2022-12-12T07:19:31.931Z,57.40
2022-12-12T07:20:31.967Z,54.59
2022-12-12T07:21:31.916Z,56.37
2022-12-12T07:22:31.918Z,56.25
2022-12-12T07:23:31.908Z,55.25
2022-12-12T07:24:31.898Z,57.41
2022-12-12T07:25:31.913Z,54.53
2022-12-12T07:26:31.874Z,54.27
2022-12-12T07:27:31.891Z,53.75
2022-12-12T07:28:31.859Z,54.72
2022-12-12T07:29:31.868Z,56.96
2022-12-12T07:30:31.894Z,55.24
2022-12-12T07:31:31.944Z,56.10
2022-12-12T07:32:31.839Z,56.07
2022-12-12T07:33:42.638Z,55.91
2022-12-12T07:34:33.828Z,54.61
2022-12-12T07:35:31.845Z,56.10
2022-12-12T07:36:31.805Z,56.11
2022-12-12T07:37:31.881Z,54.08
2022-12-12T07:38:31.793Z,56.15
2022-12-12T07:39:31.798Z,55.77
2022-12-12T07:40:31.803Z,51.86
2022-12-12T07:41:31.769Z,55.79
2022-12-12T07:42:31.759Z,56.40
2022-12-12T07:43:33.145Z,57.34
2022-12-12T07:44:32.745Z,55.04
2022-12-12T07:45:31.762Z,54.92
2022-12-12T07:46:31.774Z,52.65
2022-12-12T07:47:31.737Z,56.96
2022-12-12T07:48:31.713Z,57.40
2022-12-12T07:49:31.710Z,56.20
2022-12-12T07:50:31.735Z,55.31
2022-12-12T07:51:31.698Z,56.31
2022-12-12T07:52:31.691Z,55.61
2022-12-12T07:53:31.681Z,60.07
2022-12-12T07:54:31.684Z,57.38
2022-12-12T07:55:31.713Z,56.96
2022-12-12T07:56:31.996Z,57.58
2022-12-12T07:57:31.662Z,56.68
2022-12-12T07:58:31.654Z,51.79
2022-12-12T07:59:31.642Z,61.39
2022-12-12T08:00:31.670Z,54.28
2022-12-12T08:01:31.723Z,55.31
2022-12-12T08:02:31.633Z,60.42
2022-12-12T08:03:31.610Z,57.31
2022-12-12T08:04:31.648Z,58.53
2022-12-12T08:05:31.592Z,60.29
2022-12-12T08:06:31.630Z,62.81
2022-12-12T08:07:31.585Z,60.80
2022-12-12T08:08:31.609Z,60.78
2022-12-12T08:09:31.582Z,60.67
2022-12-12T08:10:31.557Z,60.60
2022-12-12T08:11:31.589Z,61.57
2022-12-12T08:12:31.541Z,61.58
2022-12-12T08:13:31.544Z,61.75
2022-12-12T08:14:31.532Z,61.52
2022-12-12T08:15:31.524Z,61.71
2022-12-12T08:16:31.614Z,61.25
2022-12-12T08:17:31.510Z,62.35
2022-12-12T08:18:31.502Z,61.52
2022-12-12T08:19:31.493Z,60.95
2022-12-12T08:20:31.502Z,61.39
2022-12-12T08:21:31.510Z,61.76
2022-12-12T08:22:31.473Z,61.74
2022-12-12T08:23:31.487Z,60.85
2022-12-12T08:24:31.466Z,61.20
2022-12-12T08:25:31.448Z,60.97
2022-12-12T08:26:31.478Z,61.49
2022-12-12T08:27:31.440Z,60.95
2022-12-12T08:28:31.446Z,59.34
2022-12-12T08:29:31.421Z,56.66
2022-12-12T08:30:31.420Z,55.65
2022-12-12T08:31:31.570Z,54.19
2022-12-12T08:32:31.401Z,55.17
2022-12-12T08:33:31.395Z,54.54
2022-12-12T08:34:31.384Z,57.67
2022-12-12T08:35:32.382Z,58.05
2022-12-12T08:36:31.411Z,56.13
2022-12-12T08:37:31.396Z,54.52
2022-12-12T08:38:31.373Z,55.59
2022-12-12T08:39:31.351Z,58.41
2022-12-12T08:40:31.346Z,56.41
2022-12-12T08:41:31.370Z,56.95
2022-12-12T08:42:31.333Z,57.98
2022-12-12T08:43:31.328Z,54.16
2022-12-12T08:44:31.320Z,56.65
2022-12-12T08:45:31.322Z,55.48
2022-12-12T08:46:31.382Z,56.75
2022-12-12T08:47:31.299Z,57.69
2022-12-12T08:48:31.290Z,59.98
2022-12-12T08:49:31.288Z,56.96
2022-12-12T08:50:31.285Z,55.97
2022-12-12T08:51:31.275Z,56.05
2022-12-12T08:52:31.299Z,55.28
2022-12-12T08:53:31.264Z,59.89
2022-12-12T08:54:31.260Z,60.73
2022-12-12T08:55:31.240Z,61.56
2022-12-12T08:56:31.230Z,61.50
2022-12-12T08:57:31.251Z,60.47
2022-12-12T08:58:31.255Z,60.18
2022-12-12T08:59:31.205Z,63.46
2022-12-12T09:00:31.207Z,60.72
2022-12-12T09:01:31.309Z,59.44
2022-12-12T09:02:31.340Z,60.50
2022-12-12T09:03:31.189Z,60.73
2022-12-12T09:04:31.178Z,60.39
2022-12-12T09:05:31.164Z,60.85
2022-12-12T09:06:31.158Z,60.79
2022-12-12T09:07:31.202Z,60.67
2022-12-12T09:08:31.203Z,60.13
2022-12-12T09:09:31.139Z,60.55
2022-12-12T09:10:31.133Z,60.01
2022-12-12T09:11:31.131Z,53.40
2022-12-12T09:12:31.152Z,58.55
2022-12-12T09:13:31.104Z,54.79
2022-12-12T09:14:31.106Z,59.25
2022-12-12T09:15:31.098Z,56.51
2022-12-12T09:16:31.265Z,54.32
2022-12-12T09:17:31.115Z,51.05
2022-12-12T09:18:31.087Z,55.05
2022-12-12T09:19:31.075Z,55.48
2022-12-12T09:20:31.056Z,56.60
2022-12-12T09:21:31.055Z,56.18
2022-12-12T09:22:31.067Z,55.80
2022-12-12T09:23:32.034Z,59.05
2022-12-12T09:24:31.025Z,54.68
2022-12-12T09:25:31.017Z,56.18
2022-12-12T09:26:31.003Z,57.63
2022-12-12T09:27:32.030Z,55.30
2022-12-12T09:28:31.003Z,55.82
2022-12-12T09:29:30.994Z,60.05
2022-12-12T09:30:30.988Z,56.82
2022-12-12T09:31:31.016Z,57.83
2022-12-12T09:32:30.995Z,58.78
2022-12-12T09:33:30.970Z,55.98
2022-12-12T09:34:30.959Z,55.22
2022-12-12T09:35:30.946Z,57.47
2022-12-12T09:36:30.961Z,54.80
2022-12-12T09:37:30.966Z,59.16
2022-12-12T09:38:30.935Z,55.37
2022-12-12T09:39:30.930Z,53.02
2022-12-12T09:40:30.916Z,58.30
2022-12-12T09:41:30.904Z,59.68
2022-12-12T09:42:30.911Z,56.14
2022-12-12T09:43:30.961Z,50.81
2022-12-12T09:44:30.890Z,56.64
2022-12-12T09:45:30.942Z,57.47
2022-12-12T09:46:31.406Z,58.65
2022-12-12T09:47:30.902Z,56.41
2022-12-12T09:48:30.899Z,57.63
2022-12-12T09:49:30.854Z,55.67
2022-12-12T09:50:30.843Z,56.03
2022-12-12T09:51:30.847Z,54.32
2022-12-12T09:52:31.369Z,57.62
2022-12-12T09:53:31.852Z,56.81
2022-12-12T09:54:30.817Z,57.31
2022-12-12T09:55:30.805Z,56.21
2022-12-12T09:56:30.800Z,58.51
2022-12-12T09:57:30.792Z,57.72
2022-12-12T09:58:30.808Z,59.63
2022-12-12T09:59:30.780Z,55.92
2022-12-12T10:00:30.803Z,57.14
2022-12-12T10:01:30.771Z,57.19
2022-12-12T10:02:30.795Z,58.70
2022-12-12T10:03:30.815Z,60.07
2022-12-12T10:04:30.745Z,60.30
2022-12-12T10:05:30.746Z,61.24
2022-12-12T10:06:38.358Z,62.85
2022-12-12T10:07:32.718Z,62.55
2022-12-12T10:08:30.799Z,61.46
2022-12-12T10:09:30.706Z,61.70
2022-12-12T10:10:30.699Z,60.72
2022-12-12T10:11:30.693Z,61.13
2022-12-12T10:12:30.692Z,60.91
2022-12-12T10:13:30.706Z,61.66
2022-12-12T10:14:30.669Z,60.92
2022-12-12T10:15:30.663Z,60.81
2022-12-12T10:16:30.708Z,61.04
2022-12-12T10:17:30.647Z,61.05
2022-12-12T10:18:30.678Z,61.33
2022-12-12T10:19:30.646Z,61.06
2022-12-12T10:20:30.627Z,59.73
2022-12-12T10:21:30.623Z,55.27
2022-12-12T10:22:30.615Z,56.28
2022-12-12T10:23:30.636Z,55.98
2022-12-12T10:24:30.602Z,57.09
2022-12-12T10:25:30.593Z,56.04
2022-12-12T10:26:30.612Z,61.21
2022-12-12T10:27:30.584Z,57.39
2022-12-12T10:28:30.598Z,54.42
2022-12-12T10:29:30.558Z,58.20
2022-12-12T10:30:30.561Z,55.01
2022-12-12T10:31:30.588Z,59.98
2022-12-12T10:32:30.541Z,58.04
2022-12-12T10:33:30.568Z,55.79
2022-12-12T10:34:30.533Z,55.62
2022-12-12T10:35:30.749Z,55.64
2022-12-12T10:36:30.509Z,55.99
2022-12-12T10:37:30.503Z,57.19
2022-12-12T10:38:30.499Z,58.25
2022-12-12T10:39:30.512Z,56.10
2022-12-12T10:40:30.502Z,55.80
2022-12-12T10:41:30.472Z,54.33
2022-12-12T10:42:30.468Z,58.60
2022-12-12T10:43:30.464Z,54.17
2022-12-12T10:44:30.479Z,56.59
2022-12-12T10:45:30.468Z,56.65
2022-12-12T10:46:30.519Z,57.52
2022-12-12T10:47:30.623Z,54.74
2022-12-12T10:48:30.439Z,55.13
2022-12-12T10:49:30.449Z,55.95
2022-12-12T10:50:30.414Z,55.79
2022-12-12T10:51:30.405Z,57.48
2022-12-12T10:52:30.428Z,55.10
2022-12-12T10:53:30.387Z,58.32
2022-12-12T10:54:30.546Z,52.69
2022-12-12T10:55:30.378Z,58.03
2022-12-12T10:56:30.365Z,60.68
2022-12-12T10:57:30.363Z,61.99
2022-12-12T10:58:30.361Z,62.12
2022-12-12T10:59:30.534Z,61.69
2022-12-12T11:00:30.339Z,62.05
2022-12-12T11:02:00.432Z,62.24
2022-12-12T11:02:32.523Z,61.25
2022-12-12T11:03:30.340Z,60.94
2022-12-12T11:04:30.348Z,60.51
2022-12-12T11:05:30.311Z,61.02
2022-12-12T11:06:30.294Z,60.64
2022-12-12T11:07:30.290Z,61.65
2022-12-12T11:08:30.328Z,61.10
2022-12-12T11:09:30.314Z,60.52
2022-12-12T11:10:33.994Z,61.98
2022-12-12T11:11:31.260Z,61.63
2022-12-12T11:12:30.252Z,61.29
2022-12-12T11:13:30.245Z,63.18
2022-12-12T11:14:30.243Z,56.26
2022-12-12T11:15:30.257Z,56.76
2022-12-12T11:16:30.260Z,56.22
2022-12-12T11:17:30.229Z,56.95
2022-12-12T11:18:30.224Z,58.40
2022-12-12T11:19:30.200Z,55.90
2022-12-12T11:20:30.216Z,55.07
2022-12-12T11:21:30.197Z,56.45
2022-12-12T11:22:30.247Z,58.26
2022-12-12T11:23:30.187Z,57.36
2022-12-12T11:24:30.168Z,52.55
2022-12-12T11:25:30.185Z,56.71
2022-12-12T11:26:30.150Z,58.01
2022-12-12T11:27:30.155Z,54.47
2022-12-12T11:28:30.138Z,57.58
2022-12-12T11:29:30.131Z,56.33
2022-12-12T11:30:30.177Z,60.66
2022-12-12T11:31:30.180Z,61.46
2022-12-12T11:32:30.118Z,61.75
2022-12-12T11:33:30.101Z,62.78
2022-12-12T11:34:30.086Z,62.11
2022-12-12T11:35:30.118Z,61.87
2022-12-12T11:36:30.081Z,61.61
2022-12-12T11:37:30.081Z,62.77
2022-12-12T11:38:30.118Z,61.46
2022-12-12T11:39:30.059Z,61.82
2022-12-12T11:40:30.084Z,61.88
2022-12-12T11:41:30.043Z,61.09
2022-12-12T11:42:30.046Z,60.88
2022-12-12T11:43:30.028Z,62.17
2022-12-12T11:44:30.019Z,62.58
2022-12-12T11:45:30.118Z,61.66
2022-12-12T11:46:30.008Z,60.14
2022-12-12T11:47:30.006Z,55.64
2022-12-12T11:48:29.994Z,57.93
2022-12-12T11:49:29.984Z,57.77
2022-12-12T11:50:30.005Z,58.66
2022-12-12T11:51:29.980Z,53.79
2022-12-12T11:52:29.956Z,56.80
2022-12-12T11:53:29.958Z,57.64
2022-12-12T11:54:29.957Z,56.61
2022-12-12T11:55:29.976Z,54.77
2022-12-12T11:56:29.929Z,55.49
2022-12-12T11:57:29.921Z,55.67
2022-12-12T11:58:29.925Z,53.77
2022-12-12T11:59:29.907Z,59.34
2022-12-12T12:00:29.935Z,59.77
2022-12-12T12:01:29.896Z,57.78
2022-12-12T12:02:29.912Z,56.69
2022-12-12T12:03:29.960Z,57.74
2022-12-12T12:04:29.886Z,55.64
2022-12-12T12:05:29.893Z,57.17
2022-12-12T12:06:29.854Z,59.24
2022-12-12T12:07:29.870Z,57.52
2022-12-12T12:08:29.941Z,55.22
2022-12-12T12:09:29.840Z,52.05
2022-12-12T12:10:29.865Z,58.05
2022-12-12T12:11:29.828Z,58.12
2022-12-12T12:12:29.824Z,60.20
2022-12-12T12:13:29.804Z,61.28
2022-12-12T12:14:29.826Z,61.93
2022-12-12T12:15:29.816Z,62.92
2022-12-12T12:16:29.979Z,61.08
2022-12-12T12:17:29.773Z,62.02
2022-12-12T12:18:29.778Z,61.81
2022-12-12T12:19:29.765Z,60.89
2022-12-12T12:20:29.781Z,61.46
2022-12-12T12:21:29.779Z,61.42
2022-12-12T12:22:29.741Z,61.68
2022-12-12T12:23:29.741Z,61.74
2022-12-12T12:24:29.733Z,61.42
2022-12-12T12:25:29.726Z,61.88
2022-12-12T12:26:29.741Z,61.41
2022-12-12T12:27:29.707Z,61.21
2022-12-12T12:28:29.712Z,61.78
2022-12-12T12:29:29.696Z,62.77
2022-12-12T12:30:29.742Z,55.01
2022-12-12T12:31:29.706Z,55.64
2022-12-12T12:32:29.677Z,54.04
2022-12-12T12:33:29.673Z,58.13
2022-12-12T12:34:29.671Z,56.87
2022-12-12T12:35:29.655Z,56.15
2022-12-12T12:36:29.674Z,52.84
2022-12-12T12:37:29.638Z,55.69
2022-12-12T12:38:29.645Z,57.17
2022-12-12T12:39:29.619Z,52.24
2022-12-12T12:40:29.622Z,57.42
2022-12-12T12:41:29.642Z,57.81
2022-12-12T12:42:29.596Z,57.72
2022-12-12T12:43:29.592Z,57.78
2022-12-12T12:44:29.587Z,56.71
2022-12-12T12:45:29.583Z,56.71
2022-12-12T12:46:29.627Z,58.05
2022-12-12T12:47:29.568Z,60.92
2022-12-12T12:48:29.564Z,56.41
2022-12-12T12:49:29.560Z,58.04
2022-12-12T12:51:03.201Z,56.70
2022-12-12T12:51:29.575Z,60.64
2022-12-12T12:52:29.542Z,61.29